Time;durP1;ratioP1;P1;durP2;ratioP2;P2;SDS_P1;SDS_P2;PMS_P1;PMS_P2;Temp;Humidity;BMP_temperature;BMP_pressure;BME280_temperature;BME280_humidity;BME280_pressure;Samples;Min_cycle;Max_cycle;Signal;HPM_P1;HPM_P2
2021/12/23 00:00:31;;;;;;;;;;;4.20;85.70;;;;;;5009406;28;19967;-62
2021/12/23 00:02:56;;;;;;;;;;;4.20;85.70;;;;;;5008657;28;19913;-61
2021/12/23 00:05:22;;;;;;;;;;;4.20;85.70;;;;;;5008998;28;19909;-61
2021/12/23 00:07:47;;;;;;;;;;;4.20;85.70;;;;;;5008706;28;20365;-62
2021/12/23 00:10:13;;;;;;;;;;;4.20;85.70;;;;;;4993095;28;19982;-61
2021/12/23 00:12:39;;;;;;;;;;;4.20;85.70;;;;;;5024191;28;19941;-61
2021/12/23 00:15:09;;;;;;;;;;;4.20;85.70;;;;;;5024290;28;19940;-62
2021/12/23 00:25:47;;;;;;;;;;;4.10;85.70;;;;;;5011912;28;19909;-61
2021/12/23 00:28:13;;;;;;;;;;;4.10;85.70;;;;;;5008639;28;19909;-64
2021/12/23 00:30:38;;;;;;;;;;;4.20;85.90;;;;;;4991921;28;20368;-61
2021/12/23 00:33:04;;;;;;;;;;;4.10;85.80;;;;;;5009340;28;19913;-62
2021/12/23 00:35:29;;;;;;;;;;;4.10;85.80;;;;;;4992515;28;19967;-61
2021/12/23 00:38:00;;;;;;;;;;;4.10;85.80;;;;;;4992313;28;19917;-61
2021/12/23 00:40:26;;;;;;;;;;;4.10;85.80;;;;;;5007414;28;20040;-61
2021/12/23 00:42:51;;;;;;;;;;;4.10;85.90;;;;;;5008519;28;20057;-62
2021/12/23 00:45:17;;;;;;;;;;;4.00;85.80;;;;;;5008814;28;19911;-61
2021/12/23 00:47:42;;;;;;;;;;;4.10;86.00;;;;;;5008330;28;20136;-61
2021/12/23 00:50:08;;;;;;;;;;;4.10;86.00;;;;;;5007913;28;20289;-62
2021/12/23 00:52:36;;;;;;;;;;;4.00;86.00;;;;;;5008457;28;19913;-62
2021/12/23 00:55:02;;;;;;;;;;;4.00;86.00;;;;;;5008139;28;20232;-61
2021/12/23 00:57:29;;;;;;;;;;;4.00;86.00;;;;;;5025158;28;19941;-61
2021/12/23 00:59:55;;;;;;;;;;;4.00;86.10;;;;;;5023695;28;20391;-61
2021/12/23 01:02:24;;;;;;;;;;;3.90;86.00;;;;;;4992907;28;20024;-61
2021/12/23 01:04:50;;;;;;;;;;;3.90;86.00;;;;;;5007201;28;20379;-61
2021/12/23 01:07:15;;;;;;;;;;;3.90;86.00;;;;;;4992394;28;19980;-61
2021/12/23 01:09:41;;;;;;;;;;;3.90;86.20;;;;;;4991505;28;20391;-61
2021/12/23 01:12:09;;;;;;;;;;;3.90;86.10;;;;;;5025285;28;19970;-62
2021/12/23 01:14:52;;;;;;;;;;;3.90;86.20;;;;;;5025596;28;19913;-61
2021/12/23 01:19:49;;;;;;;;;;;3.90;86.20;;;;;;5023128;28;19960;-61
2021/12/23 01:22:15;;;;;;;;;;;3.90;86.20;;;;;;5008312;28;19913;-61
2021/12/23 01:24:40;;;;;;;;;;;3.90;86.20;;;;;;5007480;28;19925;-61
2021/12/23 01:27:06;;;;;;;;;;;3.80;86.20;;;;;;5006864;28;19936;-61
2021/12/23 01:29:31;;;;;;;;;;;3.80;86.30;;;;;;5007657;28;20572;-61
2021/12/23 01:31:57;;;;;;;;;;;3.80;86.30;;;;;;5006699;28;19917;-62
2021/12/23 01:34:22;;;;;;;;;;;3.80;86.30;;;;;;5022578;28;19940;-62
2021/12/23 01:36:48;;;;;;;;;;;3.80;86.30;;;;;;5006603;28;19913;-61
2021/12/23 01:39:14;;;;;;;;;;;3.80;86.30;;;;;;5007516;28;19910;-60
2021/12/23 01:41:39;;;;;;;;;;;3.70;86.30;;;;;;4990840;28;19909;-61
2021/12/23 01:44:05;;;;;;;;;;;3.70;86.20;;;;;;4990677;28;19917;-60
2021/12/23 01:46:30;;;;;;;;;;;3.80;86.90;;;;;;5006656;28;19921;-62
2021/12/23 01:48:56;;;;;;;;;;;3.80;86.30;;;;;;5007458;28;19913;-61
2021/12/23 01:51:21;;;;;;;;;;;3.70;86.30;;;;;;5005406;28;20365;-61
2021/12/23 01:53:46;;;;;;;;;;;3.70;86.40;;;;;;5008468;28;19925;-61
2021/12/23 01:56:12;;;;;;;;;;;3.70;86.30;;;;;;5006523;28;20538;-60
2021/12/23 01:58:38;;;;;;;;;;;3.70;86.40;;;;;;4990039;28;20008;-61
2021/12/23 02:01:03;;;;;;;;;;;3.70;86.50;;;;;;5006227;28;20011;-62
2021/12/23 02:03:29;;;;;;;;;;;3.70;86.40;;;;;;5024082;28;19979;-62
2021/12/23 02:05:54;;;;;;;;;;;3.70;86.40;;;;;;5023994;28;19921;-61
2021/12/23 02:08:19;;;;;;;;;;;3.70;86.40;;;;;;5006841;28;19913;-61
2021/12/23 02:10:45;;;;;;;;;;;3.60;86.40;;;;;;5023948;28;20375;-61
2021/12/23 02:13:10;;;;;;;;;;;3.60;86.40;;;;;;5004086;28;20645;-62
2021/12/23 02:15:36;;;;;;;;;;;3.60;86.40;;;;;;5005923;28;20407;-61
2021/12/23 02:18:01;;;;;;;;;;;3.60;86.40;;;;;;5007305;28;19960;-61
2021/12/23 02:20:31;;;;;;;;;;;3.70;86.50;;;;;;5005950;28;20758;-61
2021/12/23 02:22:56;;;;;;;;;;;3.60;86.40;;;;;;5023363;28;19909;-61
2021/12/23 02:25:22;;;;;;;;;;;3.60;86.50;;;;;;4990207;28;20407;-61
2021/12/23 02:27:48;;;;;;;;;;;3.60;86.50;;;;;;5005523;28;19936;-60
2021/12/23 02:30:15;;;;;;;;;;;3.60;86.40;;;;;;5005507;28;19918;-61
2021/12/23 02:32:41;;;;;;;;;;;3.60;86.40;;;;;;5005818;28;19917;-61
2021/12/23 02:35:09;;;;;;;;;;;3.50;86.50;;;;;;5006606;28;20070;-61
2021/12/23 02:37:34;;;;;;;;;;;3.50;86.40;;;;;;4990759;28;19916;-61
2021/12/23 02:40:00;;;;;;;;;;;3.60;86.60;;;;;;5005894;28;19921;-61
2021/12/23 02:42:25;;;;;;;;;;;3.50;86.50;;;;;;5023727;28;20011;-61
2021/12/23 02:44:52;;;;;;;;;;;3.50;86.60;;;;;;4990033;28;20270;-62
2021/12/23 02:47:18;;;;;;;;;;;3.50;86.50;;;;;;5006625;28;19917;-61
2021/12/23 02:49:44;;;;;;;;;;;3.50;86.50;;;;;;5005169;28;19913;-61
2021/12/23 02:52:09;;;;;;;;;;;3.50;86.60;;;;;;5005275;28;19917;-61
2021/12/23 02:54:35;;;;;;;;;;;3.50;86.70;;;;;;4988286;28;19924;-61
2021/12/23 02:57:01;;;;;;;;;;;3.50;86.60;;;;;;4990333;28;20011;-60
2021/12/23 02:59:26;;;;;;;;;;;3.40;86.60;;;;;;5021254;28;19924;-61
2021/12/23 03:01:52;;;;;;;;;;;3.40;86.60;;;;;;5020413;28;19925;-61
2021/12/23 03:04:17;;;;;;;;;;;3.50;86.70;;;;;;5005108;28;19921;-61
2021/12/23 03:06:42;;;;;;;;;;;3.40;86.60;;;;;;4989720;28;20480;-61
2021/12/23 03:09:08;;;;;;;;;;;3.40;86.60;;;;;;5006664;28;19924;-61
2021/12/23 03:11:33;;;;;;;;;;;3.40;86.60;;;;;;5006905;28;19967;-60
2021/12/23 03:13:59;;;;;;;;;;;3.40;86.70;;;;;;5005772;28;19921;-61
2021/12/23 03:16:25;;;;;;;;;;;3.40;86.80;;;;;;5021955;28;20396;-61
2021/12/23 03:18:51;;;;;;;;;;;3.40;87.30;;;;;;5006631;28;20379;-61
2021/12/23 03:21:16;;;;;;;;;;;3.40;86.80;;;;;;4989744;28;19921;-61
2021/12/23 03:23:42;;;;;;;;;;;3.40;86.80;;;;;;5021447;28;19960;-61
2021/12/23 03:26:07;;;;;;;;;;;3.60;86.80;;;;;;5009761;28;20045;-61
2021/12/23 03:28:33;;;;;;;;;;;3.30;86.80;;;;;;5025574;28;19919;-61
2021/12/23 03:30:58;;;;;;;;;;;3.30;86.80;;;;;;5007528;28;19917;-61
2021/12/23 03:33:24;;;;;;;;;;;3.30;86.80;;;;;;5009458;28;19916;-62
2021/12/23 03:35:49;;;;;;;;;;;3.30;86.80;;;;;;5025763;28;19909;-61
2021/12/23 03:38:15;;;;;;;;;;;3.30;86.90;;;;;;4993901;28;20014;-61
2021/12/23 03:40:40;;;;;;;;;;;3.30;86.90;;;;;;5006050;28;19932;-61
2021/12/23 03:43:06;;;;;;;;;;;3.30;86.90;;;;;;5025644;28;19920;-61
2021/12/23 03:45:31;;;;;;;;;;;3.40;86.90;;;;;;5009555;28;19917;-61
2021/12/23 03:47:57;;;;;;;;;;;3.30;87.00;;;;;;4993855;28;19909;-61
2021/12/23 03:50:23;;;;;;;;;;;3.40;87.00;;;;;;5008546;28;20309;-61
2021/12/23 03:52:48;;;;;;;;;;;3.30;86.90;;;;;;4993810;28;20252;-61
2021/12/23 03:55:14;;;;;;;;;;;3.30;87.00;;;;;;5008715;28;19913;-61
2021/12/23 03:57:40;;;;;;;;;;;3.40;87.10;;;;;;5009362;28;19925;-61
2021/12/23 04:00:06;;;;;;;;;;;3.40;87.10;;;;;;5006668;28;20284;-61
2021/12/23 04:02:31;;;;;;;;;;;3.30;86.90;;;;;;4992994;28;20166;-61
2021/12/23 04:04:57;;;;;;;;;;;3.30;87.00;;;;;;5009087;28;19917;-61
2021/12/23 04:07:22;;;;;;;;;;;3.30;87.00;;;;;;5009247;28;19913;-62
2021/12/23 04:09:48;;;;;;;;;;;3.40;87.10;;;;;;5008065;28;19956;-60
2021/12/23 04:12:13;;;;;;;;;;;3.30;87.10;;;;;;5009430;28;19959;-61
2021/12/23 04:14:39;;;;;;;;;;;3.30;87.10;;;;;;5006334;28;19924;-61
2021/12/23 04:17:04;;;;;;;;;;;3.30;87.20;;;;;;5009222;28;19920;-61
2021/12/23 04:19:31;;;;;;;;;;;3.30;87.20;;;;;;5007063;28;19921;-60
2021/12/23 04:21:57;;;;;;;;;;;3.30;87.20;;;;;;5009429;28;20000;-62
2021/12/23 04:24:23;;;;;;;;;;;3.30;87.30;;;;;;5006299;28;20051;-61
2021/12/23 04:26:48;;;;;;;;;;;3.30;87.30;;;;;;5008379;28;19917;-61
2021/12/23 04:29:14;;;;;;;;;;;3.40;87.50;;;;;;4989528;28;19984;-60
2021/12/23 04:31:39;;;;;;;;;;;3.20;87.40;;;;;;5023694;28;19928;-61
2021/12/23 04:34:04;;;;;;;;;;;3.20;87.50;;;;;;4992328;28;19913;-61
2021/12/23 04:36:30;;;;;;;;;;;3.20;87.50;;;;;;5008019;28;19912;-61
2021/12/23 04:38:56;;;;;;;;;;;3.20;87.40;;;;;;5006102;28;19913;-62
2021/12/23 04:41:21;;;;;;;;;;;3.10;87.40;;;;;;5026852;28;19917;-61
2021/12/23 04:43:47;;;;;;;;;;;3.20;87.60;;;;;;4992034;28;19932;-61
2021/12/23 04:46:12;;;;;;;;;;;3.20;87.50;;;;;;5009220;28;20051;-61
2021/12/23 04:48:37;;;;;;;;;;;3.20;87.50;;;;;;5025630;28;19925;-61
2021/12/23 04:51:03;;;;;;;;;;;3.20;87.60;;;;;;5021501;28;19931;-61
2021/12/23 04:53:28;;;;;;;;;;;3.20;87.60;;;;;;5006167;28;19917;-61
2021/12/23 04:55:54;;;;;;;;;;;3.20;87.60;;;;;;4991166;28;20580;-61
2021/12/23 04:58:19;;;;;;;;;;;3.10;87.50;;;;;;5006275;28;19917;-61
2021/12/23 05:00:48;;;;;;;;;;;3.10;87.50;;;;;;5004846;28;20389;-61
2021/12/23 05:03:14;;;;;;;;;;;3.10;87.50;;;;;;5008509;28;19968;-62
2021/12/23 05:05:39;;;;;;;;;;;3.10;87.40;;;;;;5007341;28;19949;-61
2021/12/23 05:08:06;;;;;;;;;;;3.10;87.50;;;;;;5023332;28;19983;-61
2021/12/23 05:10:32;;;;;;;;;;;3.10;87.50;;;;;;5006707;28;19924;-61
2021/12/23 05:12:57;;;;;;;;;;;3.10;87.60;;;;;;5023456;28;20241;-61
2021/12/23 05:15:23;;;;;;;;;;;3.10;87.60;;;;;;4991438;28;19917;-60
2021/12/23 05:17:48;;;;;;;;;;;3.00;87.60;;;;;;5008326;28;19967;-61
2021/12/23 05:20:15;;;;;;;;;;;3.00;87.70;;;;;;5007403;28;19916;-61
2021/12/23 05:22:40;;;;;;;;;;;3.10;87.70;;;;;;4991157;28;20405;-61
2021/12/23 05:25:06;;;;;;;;;;;3.10;87.90;;;;;;4991686;28;20023;-61
2021/12/23 05:27:32;;;;;;;;;;;3.10;87.90;;;;;;4991065;28;19917;-61
2021/12/23 05:29:57;;;;;;;;;;;3.10;87.80;;;;;;5006136;28;20388;-61
2021/12/23 05:32:23;;;;;;;;;;;3.00;87.80;;;;;;5005978;28;19925;-61
2021/12/23 05:34:48;;;;;;;;;;;3.00;87.90;;;;;;4990089;28;19974;-61
2021/12/23 05:37:14;;;;;;;;;;;3.00;87.90;;;;;;4987793;28;19918;-61
2021/12/23 05:39:39;;;;;;;;;;;3.10;88.00;;;;;;4990983;28;19913;-61
2021/12/23 05:42:04;;;;;;;;;;;3.00;87.90;;;;;;4992017;28;19913;-61
2021/12/23 05:44:30;;;;;;;;;;;3.00;88.10;;;;;;5006851;28;20284;-61
2021/12/23 05:46:55;;;;;;;;;;;3.00;88.10;;;;;;5004057;28;19925;-61
2021/12/23 05:49:21;;;;;;;;;;;3.00;88.20;;;;;;4990776;28;19917;-61
2021/12/23 05:51:46;;;;;;;;;;;3.00;88.30;;;;;;4990775;28;20357;-62
2021/12/23 05:54:12;;;;;;;;;;;3.00;88.50;;;;;;4991464;28;20009;-60
2021/12/23 05:56:37;;;;;;;;;;;3.00;88.60;;;;;;5006538;28;20288;-61
2021/12/23 05:59:03;;;;;;;;;;;3.00;88.70;;;;;;5005483;28;19945;-61
2021/12/23 06:01:28;;;;;;;;;;;2.90;88.60;;;;;;5005955;28;19921;-61
2021/12/23 06:03:54;;;;;;;;;;;3.00;88.70;;;;;;5007513;28;19932;-61
2021/12/23 06:06:19;;;;;;;;;;;3.00;88.70;;;;;;5005646;28;20233;-61
2021/12/23 06:08:45;;;;;;;;;;;2.90;88.70;;;;;;5007781;28;19919;-62
2021/12/23 06:11:10;;;;;;;;;;;2.90;88.70;;;;;;5006591;28;19913;-61
2021/12/23 06:13:36;;;;;;;;;;;3.00;88.80;;;;;;5006031;28;19913;-62
2021/12/23 06:16:01;;;;;;;;;;;2.90;88.60;;;;;;5005061;28;19995;-61
2021/12/23 06:18:26;;;;;;;;;;;3.00;88.80;;;;;;5007376;28;19917;-61
2021/12/23 06:20:52;;;;;;;;;;;3.00;88.60;;;;;;5004827;28;19944;-61
2021/12/23 06:23:17;;;;;;;;;;;2.90;88.50;;;;;;5006700;28;19932;-61
2021/12/23 06:25:43;;;;;;;;;;;2.90;88.60;;;;;;5005523;28;20437;-61
2021/12/23 06:28:08;;;;;;;;;;;2.90;88.70;;;;;;4989331;28;19917;-61
2021/12/23 06:30:34;;;;;;;;;;;3.20;88.80;;;;;;5004941;28;19909;-61
2021/12/23 06:32:59;;;;;;;;;;;2.90;88.70;;;;;;4984196;28;20057;-61
2021/12/23 06:35:26;;;;;;;;;;;2.90;88.60;;;;;;4998320;28;20956;-61
2021/12/23 06:37:51;;;;;;;;;;;3.00;88.60;;;;;;4999271;28;19917;-63
2021/12/23 06:40:17;;;;;;;;;;;2.90;88.60;;;;;;5001947;28;19913;-61
2021/12/23 06:42:42;;;;;;;;;;;2.90;88.50;;;;;;4984518;28;20368;-61
2021/12/23 06:45:08;;;;;;;;;;;2.90;88.60;;;;;;5016868;28;19910;-63
2021/12/23 06:47:34;;;;;;;;;;;2.90;88.60;;;;;;4987985;28;20351;-61
2021/12/23 06:49:59;;;;;;;;;;;2.80;88.50;;;;;;4996071;28;19917;-61
2021/12/23 06:52:24;;;;;;;;;;;2.80;88.50;;;;;;5021166;28;19924;-62
2021/12/23 06:54:53;;;;;;;;;;;2.90;88.50;;;;;;5004894;28;19917;-62
2021/12/23 06:57:19;;;;;;;;;;;2.80;88.50;;;;;;5005021;28;20351;-61
2021/12/23 06:59:45;;;;;;;;;;;2.80;88.40;;;;;;4999084;28;19932;-62
2021/12/23 07:02:10;;;;;;;;;;;2.80;88.40;;;;;;5004826;28;19921;-61
2021/12/23 07:04:36;;;;;;;;;;;2.80;88.50;;;;;;5005028;28;19999;-62
2021/12/23 07:07:09;;;;;;;;;;;2.90;88.40;;;;;;5003815;28;19921;-61
2021/12/23 07:09:38;;;;;;;;;;;2.90;88.40;;;;;;5005188;28;19916;-61
2021/12/23 07:12:04;;;;;;;;;;;2.90;88.50;;;;;;5005864;28;19921;-61
2021/12/23 07:14:30;;;;;;;;;;;2.90;88.50;;;;;;5005330;28;20181;-61
2021/12/23 07:16:55;;;;;;;;;;;2.90;88.60;;;;;;5005849;28;20254;-61
2021/12/23 07:19:21;;;;;;;;;;;2.80;88.60;;;;;;4988250;28;19920;-61
2021/12/23 07:21:46;;;;;;;;;;;2.80;88.60;;;;;;5024119;28;19909;-61
2021/12/23 07:24:11;;;;;;;;;;;2.80;88.70;;;;;;5006315;28;20412;-62
2021/12/23 07:26:37;;;;;;;;;;;3.00;88.80;;;;;;5005197;28;19910;-61
2021/12/23 07:29:02;;;;;;;;;;;2.80;88.70;;;;;;5021559;28;20011;-62
2021/12/23 07:31:28;;;;;;;;;;;2.80;88.70;;;;;;5005468;28;19913;-61
2021/12/23 07:33:53;;;;;;;;;;;2.80;88.70;;;;;;5022099;28;19917;-62
2021/12/23 07:36:19;;;;;;;;;;;2.80;88.70;;;;;;5002816;28;19925;-61
2021/12/23 07:38:44;;;;;;;;;;;2.80;88.90;;;;;;5003973;28;19932;-61
2021/12/23 07:41:10;;;;;;;;;;;2.80;89.20;;;;;;5003939;28;19925;-61
2021/12/23 07:46:01;;;;;;;;;;;2.80;88.90;;;;;;5005325;28;19967;-61
2021/12/23 07:48:26;;;;;;;;;;;2.80;88.90;;;;;;5022047;28;19920;-61
2021/12/23 07:50:55;;;;;;;;;;;2.80;89.00;;;;;;5000415;28;20032;-61
2021/12/23 07:53:20;;;;;;;;;;;2.80;89.00;;;;;;4986265;28;20151;-61
2021/12/23 07:55:46;;;;;;;;;;;2.80;89.00;;;;;;5020795;28;20432;-61
2021/12/23 07:58:11;;;;;;;;;;;2.80;89.10;;;;;;5005521;28;19956;-61
2021/12/23 08:00:37;;;;;;;;;;;2.80;89.20;;;;;;5005220;28;19917;-61
2021/12/23 08:03:02;;;;;;;;;;;2.80;89.20;;;;;;5004445;28;20292;-61
2021/12/23 08:05:28;;;;;;;;;;;2.80;89.00;;;;;;5020574;28;19913;-61
2021/12/23 08:07:54;;;;;;;;;;;2.80;89.00;;;;;;5005647;28;19913;-61
2021/12/23 08:10:20;;;;;;;;;;;2.80;89.00;;;;;;4988907;28;20395;-61
2021/12/23 08:12:45;;;;;;;;;;;2.80;89.00;;;;;;5025231;28;20483;-61
2021/12/23 08:15:11;;;;;;;;;;;2.80;89.00;;;;;;4991468;28;19925;-62
2021/12/23 08:17:36;;;;;;;;;;;2.80;89.00;;;;;;5007466;28;19917;-61
2021/12/23 08:20:02;;;;;;;;;;;2.80;89.00;;;;;;4991126;28;20503;-61
2021/12/23 08:22:28;;;;;;;;;;;2.80;89.00;;;;;;5008023;28;19909;-61
2021/12/23 08:24:53;;;;;;;;;;;3.10;89.10;;;;;;5020313;28;19928;-61
2021/12/23 08:27:21;;;;;;;;;;;2.80;89.30;;;;;;5020837;28;20450;-61
2021/12/23 08:29:46;;;;;;;;;;;2.80;89.70;;;;;;5006264;28;19924;-62
2021/12/23 08:32:12;;;;;;;;;;;2.90;89.10;;;;;;4984922;28;19929;-62
2021/12/23 08:34:38;;;;;;;;;;;2.90;89.10;;;;;;5002842;28;20356;-62
2021/12/23 08:37:06;;;;;;;;;;;2.90;89.00;;;;;;5004023;28;19933;-62
2021/12/23 08:39:32;;;;;;;;;;;2.90;89.00;;;;;;5018010;28;19913;-62
2021/12/23 08:41:57;;;;;;;;;;;2.90;89.10;;;;;;5008200;28;19928;-62
2021/12/23 08:44:23;;;;;;;;;;;2.90;89.10;;;;;;5000962;28;20365;-62
2021/12/23 08:46:48;;;;;;;;;;;2.90;89.10;;;;;;5005711;28;19920;-62
2021/12/23 08:49:14;;;;;;;;;;;2.90;89.20;;;;;;5022854;28;19917;-62
2021/12/23 08:51:41;;;;;;;;;;;2.90;89.20;;;;;;5007752;28;19917;-61
2021/12/23 08:54:06;;;;;;;;;;;2.90;89.20;;;;;;4990028;28;19921;-63
2021/12/23 08:56:32;;;;;;;;;;;3.00;89.10;;;;;;5003994;28;19944;-61
2021/12/23 08:58:57;;;;;;;;;;;3.00;89.10;;;;;;4992744;28;19917;-62
2021/12/23 09:01:23;;;;;;;;;;;3.10;89.10;;;;;;5017418;28;20331;-62
2021/12/23 09:03:50;;;;;;;;;;;3.00;89.10;;;;;;4992617;28;21319;-62
2021/12/23 09:06:15;;;;;;;;;;;3.00;89.30;;;;;;4989823;28;19923;-62
2021/12/23 09:08:41;;;;;;;;;;;3.10;89.40;;;;;;5023076;28;19917;-62
2021/12/23 09:11:06;;;;;;;;;;;3.10;89.30;;;;;;5006661;28;19921;-64
2021/12/23 09:13:32;;;;;;;;;;;3.10;89.30;;;;;;5007862;28;19957;-61
2021/12/23 09:15:58;;;;;;;;;;;3.10;89.30;;;;;;5010002;28;20358;-62
2021/12/23 09:18:23;;;;;;;;;;;3.10;89.30;;;;;;4993349;28;19914;-61
2021/12/23 09:20:49;;;;;;;;;;;3.10;89.50;;;;;;5008090;28;19967;-61
2021/12/23 09:23:14;;;;;;;;;;;3.10;89.60;;;;;;5008843;28;20404;-61
2021/12/23 09:25:40;;;;;;;;;;;3.10;89.60;;;;;;4990908;28;20360;-62
2021/12/23 09:28:22;;;;;;;;;;;3.10;89.50;;;;;;5009086;28;19919;-62
2021/12/23 09:33:32;;;;;;;;;;;3.20;89.50;;;;;;5023810;28;19931;-61
2021/12/23 09:35:57;;;;;;;;;;;3.20;89.50;;;;;;5006692;28;19936;-62
2021/12/23 09:38:27;;;;;;;;;;;3.20;89.60;;;;;;4991133;28;19959;-62
2021/12/23 09:40:53;;;;;;;;;;;3.20;89.50;;;;;;5024137;28;19921;-61
2021/12/23 09:43:19;;;;;;;;;;;3.20;89.50;;;;;;4993273;28;19917;-62
2021/12/23 09:45:46;;;;;;;;;;;3.30;89.70;;;;;;5007372;28;19920;-62
2021/12/23 09:48:12;;;;;;;;;;;3.30;89.60;;;;;;4991719;28;20045;-61
2021/12/23 09:50:38;;;;;;;;;;;3.30;89.70;;;;;;5023029;28;19991;-62
2021/12/23 09:53:03;;;;;;;;;;;3.30;89.80;;;;;;5006566;28;19921;-62
2021/12/23 09:55:29;;;;;;;;;;;3.30;89.80;;;;;;4990611;28;19921;-61
2021/12/23 09:57:55;;;;;;;;;;;3.30;90.00;;;;;;4988432;28;19914;-62
2021/12/23 10:00:21;;;;;;;;;;;3.40;89.90;;;;;;5004778;28;19927;-61
2021/12/23 10:02:47;;;;;;;;;;;3.40;89.90;;;;;;4989159;28;19921;-62
2021/12/23 10:05:17;;;;;;;;;;;3.40;89.90;;;;;;4990239;28;19935;-62
2021/12/23 10:07:44;;;;;;;;;;;3.40;89.70;;;;;;4990667;28;19932;-62
2021/12/23 10:10:15;;;;;;;;;;;3.50;89.80;;;;;;4989265;28;19920;-62
2021/12/23 10:13:10;;;;;;;;;;;3.50;89.90;;;;;;4988393;28;20369;-62
2021/12/23 10:37:15;;;;;;;;;;;3.70;90.10;;;;;;5018490;28;19956;-63
2021/12/23 10:39:43;;;;;;;;;;;3.70;90.10;;;;;;5021872;28;20333;-62
2021/12/23 10:42:09;;;;;;;;;;;3.80;90.10;;;;;;4989889;28;19997;-62
2021/12/23 10:44:35;;;;;;;;;;;3.80;90.10;;;;;;4987701;28;19925;-61
2021/12/23 10:47:00;;;;;;;;;;;3.90;90.10;;;;;;5006318;28;19909;-62
2021/12/23 10:49:33;;;;;;;;;;;3.90;90.20;;;;;;5003850;28;19956;-61
2021/12/23 10:52:06;;;;;;;;;;;3.90;90.20;;;;;;5002676;28;19917;-61
2021/12/23 11:00:16;;;;;;;;;;;4.00;90.20;;;;;;5020792;28;19932;-62
2021/12/23 11:02:58;;;;;;;;;;;4.10;90.50;;;;;;4988731;28;20381;-62
2021/12/23 11:05:28;;;;;;;;;;;4.10;90.20;;;;;;4986224;28;19928;-62
2021/12/23 11:08:12;;;;;;;;;;;4.10;90.20;;;;;;5004845;28;19939;-62
2021/12/23 11:38:11;;;;;;;;;;;4.50;90.10;;;;;;5021813;28;20072;-62
2021/12/23 11:40:51;;;;;;;;;;;4.50;90.10;;;;;;5004950;28;19927;-63
2021/12/23 11:45:47;;;;;;;;;;;4.60;90.00;;;;;;4996978;28;19925;-63
2021/12/23 11:48:14;;;;;;;;;;;4.60;90.00;;;;;;4990950;28;19921;-63
2021/12/23 11:50:54;;;;;;;;;;;4.60;90.00;;;;;;4992081;28;20384;-62
2021/12/23 11:53:20;;;;;;;;;;;4.60;89.90;;;;;;4993737;28;19925;-63
2021/12/23 11:55:45;;;;;;;;;;;4.70;89.90;;;;;;4989745;28;19943;-62
2021/12/23 11:58:12;;;;;;;;;;;4.80;89.90;;;;;;4993213;28;20416;-63
2021/12/23 12:00:42;;;;;;;;;;;4.80;90.00;;;;;;5021340;28;19921;-63
2021/12/23 12:03:08;;;;;;;;;;;4.80;90.00;;;;;;5006414;28;20095;-62
2021/12/23 12:05:34;;;;;;;;;;;4.90;90.00;;;;;;5006430;28;20656;-63
2021/12/23 12:08:11;;;;;;;;;;;4.90;89.90;;;;;;4986673;28;19928;-63
2021/12/23 12:10:37;;;;;;;;;;;4.90;89.80;;;;;;5002654;28;20296;-62
2021/12/23 12:13:09;;;;;;;;;;;5.00;89.70;;;;;;5019161;28;19936;-63
2021/12/23 12:15:37;;;;;;;;;;;5.00;90.00;;;;;;5018160;28;19932;-62
2021/12/23 12:18:03;;;;;;;;;;;5.10;89.50;;;;;;5021958;28;19921;-62
2021/12/23 12:20:37;;;;;;;;;;;5.10;89.60;;;;;;4990509;28;19921;-63
2021/12/23 12:23:04;;;;;;;;;;;5.10;89.80;;;;;;5005574;28;20033;-62
2021/12/23 12:25:29;;;;;;;;;;;5.20;89.80;;;;;;4989412;28;19975;-62
2021/12/23 12:27:55;;;;;;;;;;;5.20;89.80;;;;;;5024758;28;20516;-63
2021/12/23 12:30:31;;;;;;;;;;;5.30;89.70;;;;;;5007977;28;19913;-62
2021/12/23 12:32:57;;;;;;;;;;;5.30;89.50;;;;;;5024238;28;20156;-62
2021/12/23 12:35:24;;;;;;;;;;;5.40;89.70;;;;;;4988488;28;19982;-63
2021/12/23 12:37:50;;;;;;;;;;;5.40;89.30;;;;;;5022116;28;19960;-62
2021/12/23 12:40:16;;;;;;;;;;;5.50;89.10;;;;;;5006944;28;19921;-62
2021/12/23 12:42:45;;;;;;;;;;;5.50;89.00;;;;;;4990091;28;19921;-62
2021/12/23 12:45:22;;;;;;;;;;;5.50;88.70;;;;;;5006591;28;19917;-62
2021/12/23 12:47:52;;;;;;;;;;;5.60;89.10;;;;;;5016918;28;20017;-62
2021/12/23 12:50:19;;;;;;;;;;;5.60;88.90;;;;;;5006403;28;19962;-63
2021/12/23 12:52:45;;;;;;;;;;;5.70;89.30;;;;;;5020000;28;19922;-62
2021/12/23 12:55:12;;;;;;;;;;;5.70;88.60;;;;;;4989947;28;19928;-62
2021/12/23 12:57:45;;;;;;;;;;;5.70;88.60;;;;;;4990482;28;19959;-62
2021/12/23 13:00:15;;;;;;;;;;;5.70;88.40;;;;;;5003169;28;19995;-62
2021/12/23 13:02:41;;;;;;;;;;;5.70;88.20;;;;;;5005098;28;19913;-62
2021/12/23 13:05:07;;;;;;;;;;;5.80;88.30;;;;;;5003896;28;20266;-62
2021/12/23 13:07:37;;;;;;;;;;;5.90;88.50;;;;;;4988861;28;20093;-61
2021/12/23 13:10:08;;;;;;;;;;;5.90;88.40;;;;;;5002003;28;19955;-62
2021/12/23 13:12:35;;;;;;;;;;;5.90;88.20;;;;;;5015763;28;19998;-63
2021/12/23 13:15:18;;;;;;;;;;;6.00;88.40;;;;;;5004597;28;19943;-62
2021/12/23 13:17:48;;;;;;;;;;;6.00;88.00;;;;;;5020725;28;19924;-63
2021/12/23 13:20:14;;;;;;;;;;;6.00;87.50;;;;;;5003452;28;19985;-62
2021/12/23 13:22:40;;;;;;;;;;;6.00;87.60;;;;;;5004177;28;20803;-63
2021/12/23 13:25:06;;;;;;;;;;;6.10;88.30;;;;;;5003374;28;19917;-62
2021/12/23 13:27:32;;;;;;;;;;;6.10;88.60;;;;;;5004691;28;19996;-62
2021/12/23 13:30:02;;;;;;;;;;;6.10;88.60;;;;;;4988515;28;20012;-62
2021/12/23 13:32:28;;;;;;;;;;;6.20;88.40;;;;;;5004298;28;20379;-61
2021/12/23 13:34:53;;;;;;;;;;;6.20;88.50;;;;;;4990631;28;19909;-62
2021/12/23 13:37:18;;;;;;;;;;;6.20;88.50;;;;;;5006716;28;19986;-61
2021/12/23 13:39:44;;;;;;;;;;;6.20;88.40;;;;;;5023247;28;19909;-62
2021/12/23 13:42:10;;;;;;;;;;;6.30;88.50;;;;;;5006341;28;19909;-62
2021/12/23 13:44:40;;;;;;;;;;;6.20;88.40;;;;;;5005017;28;19913;-62
2021/12/23 13:47:05;;;;;;;;;;;6.30;88.30;;;;;;5021528;28;20299;-62
2021/12/23 13:49:31;;;;;;;;;;;6.30;88.90;;;;;;5021265;28;20376;-62
2021/12/23 13:51:56;;;;;;;;;;;6.40;88.40;;;;;;5022477;28;19917;-61
2021/12/23 13:54:22;;;;;;;;;;;6.40;88.30;;;;;;4988756;28;20011;-62
2021/12/23 13:56:48;;;;;;;;;;;6.50;88.20;;;;;;5000363;28;19913;-62
2021/12/23 13:59:20;;;;;;;;;;;6.40;87.90;;;;;;4988117;28;20021;-62
2021/12/23 14:02:05;;;;;;;;;;;6.50;87.80;;;;;;5003483;28;19992;-61
2021/12/23 14:04:40;;;;;;;;;;;6.50;87.70;;;;;;5021763;28;20006;-63
2021/12/23 14:07:13;;;;;;;;;;;6.60;87.70;;;;;;5006784;28;20007;-62
2021/12/23 14:09:40;;;;;;;;;;;6.60;87.60;;;;;;5004472;28;19921;-62
2021/12/23 14:12:06;;;;;;;;;;;6.60;87.50;;;;;;4989032;28;19972;-63
2021/12/23 14:14:31;;;;;;;;;;;6.60;87.70;;;;;;5006381;28;20334;-61
2021/12/23 14:16:57;;;;;;;;;;;6.60;87.70;;;;;;5004148;28;20408;-63
2021/12/23 14:19:26;;;;;;;;;;;6.70;87.70;;;;;;5003613;28;20086;-63
2021/12/23 14:24:37;;;;;;;;;;;6.60;87.50;;;;;;5019524;28;19986;-62
2021/12/23 14:27:04;;;;;;;;;;;6.70;87.70;;;;;;5020654;28;20356;-62
2021/12/23 14:29:33;;;;;;;;;;;6.70;87.40;;;;;;5004654;28;20427;-62
2021/12/23 14:31:58;;;;;;;;;;;6.70;87.30;;;;;;5006793;28;19925;-62
2021/12/23 14:34:28;;;;;;;;;;;6.70;87.30;;;;;;5023704;28;20032;-62
2021/12/23 14:36:55;;;;;;;;;;;6.70;87.20;;;;;;5019793;28;19959;-61
2021/12/23 14:39:21;;;;;;;;;;;6.80;86.90;;;;;;5007635;28;19921;-62
2021/12/23 14:41:49;;;;;;;;;;;6.80;86.80;;;;;;5005527;28;19963;-63
2021/12/23 14:44:21;;;;;;;;;;;6.80;86.70;;;;;;5022683;28;19960;-62
2021/12/23 14:46:57;;;;;;;;;;;6.90;86.40;;;;;;5024186;28;19923;-62
2021/12/23 14:49:40;;;;;;;;;;;6.90;86.40;;;;;;5004821;28;19921;-62
2021/12/23 14:52:25;;;;;;;;;;;6.90;86.40;;;;;;5023021;28;20290;-62
2021/12/23 14:54:52;;;;;;;;;;;6.90;86.30;;;;;;5006087;28;19940;-63
2021/12/23 14:57:19;;;;;;;;;;;6.90;86.30;;;;;;5020344;28;21148;-62
2021/12/23 14:59:45;;;;;;;;;;;6.90;86.50;;;;;;5015419;28;19928;-62
2021/12/23 15:02:11;;;;;;;;;;;6.90;86.60;;;;;;5005128;28;19940;-62
2021/12/23 15:04:40;;;;;;;;;;;7.00;86.40;;;;;;5019796;28;20377;-62
2021/12/23 15:07:09;;;;;;;;;;;7.00;86.00;;;;;;5019506;28;19917;-63
2021/12/23 15:09:38;;;;;;;;;;;7.00;86.10;;;;;;5020363;28;19978;-62
2021/12/23 15:12:10;;;;;;;;;;;7.00;86.20;;;;;;5004423;28;19949;-62
2021/12/23 15:14:44;;;;;;;;;;;7.00;86.10;;;;;;5020720;28;20353;-63
2021/12/23 15:17:16;;;;;;;;;;;7.10;86.40;;;;;;5004795;28;19943;-62
2021/12/23 15:19:43;;;;;;;;;;;7.10;86.60;;;;;;5005247;28;20357;-62
2021/12/23 15:22:12;;;;;;;;;;;7.10;86.40;;;;;;4994479;28;19928;-61
2021/12/23 15:24:42;;;;;;;;;;;7.10;86.20;;;;;;4993378;28;19921;-63
2021/12/23 15:27:07;;;;;;;;;;;7.10;86.30;;;;;;4993294;28;19924;-63
2021/12/23 15:29:40;;;;;;;;;;;7.20;85.90;;;;;;5010707;28;20296;-62
2021/12/23 15:32:14;;;;;;;;;;;7.20;86.20;;;;;;4992304;28;19917;-62
2021/12/23 15:34:46;;;;;;;;;;;7.20;86.00;;;;;;5026781;28;20088;-61
2021/12/23 15:37:11;;;;;;;;;;;7.20;86.30;;;;;;4993184;28;20035;-62
2021/12/23 15:39:37;;;;;;;;;;;7.20;86.50;;;;;;5007792;28;20008;-62
2021/12/23 15:42:03;;;;;;;;;;;7.20;86.40;;;;;;4992137;28;20722;-63
2021/12/23 15:44:29;;;;;;;;;;;7.30;86.40;;;;;;4991692;28;19917;-62